Time;durP1;ratioP1;P1;durP2;ratioP2;P2;SDS_P1;SDS_P2;PMS_P1;PMS_P2;Temp;Humidity;BMP_temperature;BMP_pressure;BME280_temperature;BME280_humidity;BME280_pressure;Samples;Min_cycle;Max_cycle;Signal;HPM_P1;HPM_P2
2022/05/14 00:01:59;;;;;;;1.90;1.27;;;;;;;9.44;100.00;99469.69;5111151;28;20043;-77
2022/05/14 00:04:26;;;;;;;3.38;1.20;;;;;;;9.34;100.00;99464.41;5110701;28;20067;-77
2022/05/14 00:06:52;;;;;;;3.08;1.77;;;;;;;9.33;100.00;99483.59;5112496;28;20098;-77
2022/05/14 00:09:19;;;;;;;2.00;1.35;;;;;;;9.21;100.00;99458.66;5105843;28;20043;-77
2022/05/14 00:14:29;;;;;;;2.38;1.23;;;;;;;9.30;100.00;99465.75;5109070;28;20596;-77
2022/05/14 00:16:56;;;;;;;2.40;1.20;;;;;;;9.41;100.00;99480.88;5115595;28;20044;-77
2022/05/14 00:19:24;;;;;;;3.70;1.42;;;;;;;9.39;100.00;99475.63;5111603;28;20039;-77
2022/05/14 00:21:50;;;;;;;5.65;1.33;;;;;;;9.08;100.00;99461.00;5113066;28;20064;-77
2022/05/14 00:24:17;;;;;;;1.83;1.10;;;;;;;9.14;100.00;99487.50;5103365;28;20130;-77
2022/05/14 00:26:44;;;;;;;3.08;1.30;;;;;;;9.03;100.00;99458.81;5104486;28;20070;-77
2022/05/14 00:29:10;;;;;;;3.70;1.17;;;;;;;9.19;100.00;99483.22;5105638;28;20054;-77
2022/05/14 00:31:37;;;;;;;2.92;1.40;;;;;;;9.00;100.00;99457.28;5113069;28;20505;-77
2022/05/14 00:34:04;;;;;;;3.08;1.27;;;;;;;9.07;100.00;99481.88;5097447;28;20045;-77
2022/05/14 00:36:32;;;;;;;3.20;1.35;;;;;;;8.86;100.00;99456.06;5111345;28;20649;-77
2022/05/14 00:38:59;;;;;;;1.58;1.15;;;;;;;8.85;100.00;99491.47;5109624;28;20044;-77
2022/05/14 00:41:27;;;;;;;4.78;1.08;;;;;;;8.75;100.00;99466.41;5102983;28;20043;-77
2022/05/14 00:43:55;;;;;;;2.50;1.33;;;;;;;8.55;100.00;99465.81;5108464;28;20051;-76
2022/05/14 00:46:25;;;;;;;2.63;1.20;;;;;;;8.76;100.00;99477.06;5115364;28;20108;-77
2022/05/14 00:48:53;;;;;;;5.77;1.40;;;;;;;8.71;100.00;99473.16;5112328;28;20047;-77
2022/05/14 00:51:25;;;;;;;8.93;1.63;;;;;;;8.67;100.00;99451.81;5099122;28;20810;-76
2022/05/14 00:53:56;;;;;;;3.33;1.27;;;;;;;8.70;100.00;99458.75;5109032;28;20050;-76
2022/05/14 00:56:28;;;;;;;2.30;1.38;;;;;;;8.61;100.00;99457.03;5111407;28;20043;-77
2022/05/14 00:59:00;;;;;;;2.42;1.65;;;;;;;8.72;100.00;99466.72;5109083;28;20048;-77
2022/05/14 01:01:27;;;;;;;2.75;1.45;;;;;;;8.67;100.00;99476.19;5104149;28;20075;-79
2022/05/14 01:03:53;;;;;;;4.32;1.80;;;;;;;8.40;100.00;99458.31;5108702;28;20520;-77
2022/05/14 01:06:21;;;;;;;4.65;1.27;;;;;;;8.61;100.00;99478.69;5105816;28;20043;-77
2022/05/14 01:08:49;;;;;;;2.53;1.30;;;;;;;8.36;100.00;99437.97;5106522;28;20419;-77
2022/05/14 01:11:18;;;;;;;1.80;1.30;;;;;;;8.37;100.00;99455.06;5112299;28;20052;-77
2022/05/14 01:13:45;;;;;;;2.42;1.40;;;;;;;8.41;100.00;99441.00;5104524;28;20418;-77
2022/05/14 01:16:12;;;;;;;2.17;1.30;;;;;;;8.37;100.00;99468.59;5105976;28;20048;-77
2022/05/14 01:18:38;;;;;;;2.67;1.75;;;;;;;8.20;100.00;99451.44;5112139;28;20360;-77
2022/05/14 01:21:07;;;;;;;2.95;1.70;;;;;;;8.41;100.00;99464.56;5106995;28;20078;-77
2022/05/14 01:26:31;;;;;;;2.65;1.60;;;;;;;8.28;100.00;99463.16;5106550;28;20109;-77
2022/05/14 01:28:59;;;;;;;3.28;1.38;;;;;;;8.18;100.00;99461.59;5112191;28;20120;-77
2022/05/14 01:31:27;;;;;;;3.53;1.40;;;;;;;7.95;100.00;99460.28;5103550;28;20054;-77
2022/05/14 01:33:54;;;;;;;4.28;1.63;;;;;;;7.87;100.00;99470.22;5105643;28;20051;-77
2022/05/14 01:36:22;;;;;;;2.13;1.50;;;;;;;7.91;100.00;99458.91;5106904;28;20051;-77
2022/05/14 01:38:48;;;;;;;2.30;1.45;;;;;;;7.87;100.00;99476.47;5107672;28;20074;-77
2022/05/14 01:41:15;;;;;;;3.47;1.40;;;;;;;7.94;100.00;99484.81;5104925;28;20062;-77
2022/05/14 01:43:43;;;;;;;1.73;1.20;;;;;;;7.98;100.00;99491.63;5094482;28;20052;-77
2022/05/14 01:46:10;;;;;;;3.25;1.80;;;;;;;7.96;100.00;99480.94;5109994;28;20051;-77
2022/05/14 01:48:36;;;;;;;4.53;1.50;;;;;;;8.12;100.00;99503.69;5106871;28;20043;-77
2022/05/14 01:51:03;;;;;;;2.83;1.63;;;;;;;8.02;100.00;99475.88;5112565;27;20052;-77
2022/05/14 01:53:30;;;;;;;6.22;1.70;;;;;;;8.05;100.00;99487.22;5099356;28;20403;-77
2022/05/14 01:55:56;;;;;;;1.75;1.30;;;;;;;7.81;100.00;99460.88;5111412;28;20043;-77
2022/05/14 01:58:38;;;;;;;5.22;1.90;;;;;;;7.96;100.00;99489.06;5097522;28;20050;-77
2022/05/14 02:01:15;;;;;;;4.50;1.48;;;;;;;7.73;100.00;99469.78;5109864;28;20051;-77
2022/05/14 02:03:45;;;;;;;3.95;1.60;;;;;;;7.86;100.00;99480.22;5102547;28;20048;-77
2022/05/14 02:06:12;;;;;;;3.65;1.80;;;;;;;7.78;100.00;99447.66;5102717;28;20040;-77
2022/05/14 02:08:39;;;;;;;3.05;1.70;;;;;;;7.87;100.00;99481.03;5106871;28;20047;-77
2022/05/14 02:11:07;;;;;;;2.00;1.48;;;;;;;7.98;100.00;99483.50;5106874;28;20054;-77
2022/05/14 02:13:34;;;;;;;1.50;1.23;;;;;;;7.67;100.00;99454.19;5102273;28;20058;-77
2022/05/14 02:16:00;;;;;;;7.30;1.83;;;;;;;7.58;100.00;99468.69;5111219;28;20394;-77
2022/05/14 02:18:28;;;;;;;8.27;1.88;;;;;;;7.55;100.00;99471.69;5105742;28;20051;-77
2022/05/14 02:20:55;;;;;;;5.85;1.70;;;;;;;7.50;100.00;99472.19;5110424;28;20078;-77
2022/05/14 02:23:22;;;;;;;4.57;1.70;;;;;;;7.52;100.00;99447.66;5095963;28;20494;-77
2022/05/14 02:25:49;;;;;;;2.00;1.30;;;;;;;7.64;100.00;99486.97;5110980;28;20051;-77
2022/05/14 02:28:16;;;;;;;2.90;1.40;;;;;;;7.47;100.00;99444.56;5108090;28;20044;-77
2022/05/14 02:30:44;;;;;;;2.25;1.50;;;;;;;7.55;100.00;99482.53;5103353;28;20052;-77
2022/05/14 02:33:11;;;;;;;2.42;1.40;;;;;;;7.32;100.00;99447.88;5109481;28;20047;-77
2022/05/14 02:35:39;;;;;;;2.45;1.30;;;;;;;7.28;100.00;99467.25;5108509;28;20051;-77
2022/05/14 02:38:07;;;;;;;3.05;1.58;;;;;;;7.18;100.00;99461.94;5104198;28;20083;-77
2022/05/14 02:40:33;;;;;;;3.17;1.35;;;;;;;7.29;100.00;99482.47;5108520;28;20076;-77
2022/05/14 02:43:00;;;;;;;2.17;1.30;;;;;;;7.12;100.00;99474.25;5100172;28;20056;-77
2022/05/14 02:45:26;;;;;;;3.55;1.60;;;;;;;7.13;100.00;99475.06;5105630;28;20044;-77
2022/05/14 02:47:53;;;;;;;3.13;1.48;;;;;;;7.11;100.00;99474.41;5097276;28;20483;-77
2022/05/14 02:50:20;;;;;;;5.78;1.50;;;;;;;7.14;100.00;99482.19;5110955;28;20044;-77
2022/05/14 02:52:48;;;;;;;2.03;1.23;;;;;;;7.20;100.00;99468.06;5106813;28;20047;-77
2022/05/14 02:55:15;;;;;;;1.88;1.33;;;;;;;6.96;100.00;99444.34;5101903;28;20482;-77
2022/05/14 02:57:41;;;;;;;1.52;1.08;;;;;;;7.15;100.00;99481.16;5107433;28;20054;-77
2022/05/14 03:00:11;;;;;;;4.50;1.58;;;;;;;7.18;100.00;99487.13;5111019;28;20043;-77
2022/05/14 03:02:37;;;;;;;3.70;1.73;;;;;;;7.14;100.00;99485.75;5106541;28;20122;-77
2022/05/14 03:05:06;;;;;;;2.08;1.10;;;;;;;6.91;100.00;99471.84;5105116;28;20051;-77
2022/05/14 03:07:32;;;;;;;5.68;1.77;;;;;;;6.86;100.00;99453.34;5109981;28;20070;-77
2022/05/14 03:10:00;;;;;;;4.03;1.33;;;;;;;6.88;100.00;99454.06;5106592;28;20047;-77
2022/05/14 03:12:27;;;;;;;2.70;1.65;;;;;;;7.05;100.00;99473.16;5107458;28;20048;-77
2022/05/14 03:14:53;;;;;;;3.03;1.77;;;;;;;6.98;100.00;99456.69;5107806;28;20493;-77
2022/05/14 03:17:21;;;;;;;3.70;1.55;;;;;;;7.19;100.00;99488.81;5109416;28;20130;-77
2022/05/14 03:19:49;;;;;;;2.83;1.40;;;;;;;6.95;100.00;99448.88;5114483;28;20058;-77
2022/05/14 03:22:16;;;;;;;3.10;1.27;;;;;;;6.95;100.00;99470.50;5111418;28;20437;-77
2022/05/14 03:24:43;;;;;;;2.78;1.40;;;;;;;7.05;100.00;99486.66;5114540;28;20137;-77
2022/05/14 03:27:12;;;;;;;4.70;1.50;;;;;;;7.07;100.00;99487.34;5108941;28;20052;-77
2022/05/14 03:29:40;;;;;;;11.25;2.45;;;;;;;7.04;100.00;99499.31;5112779;28;20130;-77
2022/05/14 03:32:07;;;;;;;5.60;1.50;;;;;;;6.93;100.00;99496.84;5111207;28;20044;-77
2022/05/14 03:34:34;;;;;;;4.93;1.30;;;;;;;6.79;100.00;99487.44;5113399;28;20055;-77
2022/05/14 03:37:01;;;;;;;4.40;1.60;;;;;;;6.82;100.00;99484.41;5109817;28;20490;-77
2022/05/14 03:39:27;;;;;;;3.08;1.90;;;;;;;6.67;100.00;99496.72;5108800;28;20036;-77
2022/05/14 03:41:54;;;;;;;4.07;1.65;;;;;;;6.52;100.00;99494.56;5110899;28;20610;-77
2022/05/14 03:44:22;;;;;;;3.33;1.42;;;;;;;6.50;100.00;99464.16;5104748;28;20487;-77
2022/05/14 03:46:48;;;;;;;8.60;2.63;;;;;;;6.43;100.00;99463.06;5105920;28;20064;-77
2022/05/14 03:49:15;;;;;;;4.55;1.55;;;;;;;6.51;100.00;99468.53;5113364;28;20042;-77
2022/05/14 03:51:43;;;;;;;3.47;1.60;;;;;;;6.65;100.00;99493.34;5114719;28;20051;-77
2022/05/14 03:54:09;;;;;;;3.15;1.90;;;;;;;6.71;100.00;99480.09;5113087;28;20048;-77
2022/05/14 03:56:39;;;;;;;3.25;1.70;;;;;;;6.54;100.00;99467.38;5113962;28;20134;-77
2022/05/14 03:59:06;;;;;;;3.22;1.40;;;;;;;6.64;100.00;99480.81;5104322;28;20047;-77
2022/05/14 04:01:34;;;;;;;3.80;1.80;;;;;;;6.53;100.00;99473.78;5116649;28;20050;-77
2022/05/14 04:04:01;;;;;;;9.85;2.50;;;;;;;6.66;100.00;99495.03;5111435;28;20050;-77
2022/05/14 04:06:28;;;;;;;4.03;1.80;;;;;;;6.57;100.00;99463.53;5111686;28;20044;-77
2022/05/14 04:08:54;;;;;;;2.97;1.42;;;;;;;6.62;100.00;99485.53;5112428;28;20048;-77
2022/05/14 04:11:21;;;;;;;2.78;1.42;;;;;;;6.66;100.00;99484.25;5107190;28;20048;-77
2022/05/14 04:13:47;;;;;;;4.20;1.60;;;;;;;6.80;100.00;99469.34;5108595;28;20047;-77
2022/05/14 04:16:14;;;;;;;4.32;1.65;;;;;;;6.89;100.00;99472.00;5113799;28;20048;-77
2022/05/14 04:18:42;;;;;;;2.17;1.55;;;;;;;6.82;100.00;99451.13;5109161;28;20048;-77
2022/05/14 04:21:09;;;;;;;2.35;1.60;;;;;;;6.77;100.00;99469.66;5103335;28;20266;-77
2022/05/14 04:23:36;;;;;;;3.33;1.90;;;;;;;6.96;100.00;99493.00;5112826;28;20079;-77
2022/05/14 04:26:03;;;;;;;4.00;1.55;;;;;;;7.01;100.00;99496.91;5113772;28;20052;-77
2022/05/14 04:28:30;;;;;;;2.75;1.42;;;;;;;6.82;100.00;99487.13;5112180;28;20055;-77
2022/05/14 04:30:57;;;;;;;2.83;1.52;;;;;;;6.93;100.00;99483.34;5111358;28;20058;-77
2022/05/14 04:33:24;;;;;;;6.43;1.95;;;;;;;6.86;100.00;99472.28;5109612;28;20118;-77
2022/05/14 04:35:52;;;;;;;2.45;1.50;;;;;;;7.01;100.00;99488.81;5112772;28;20054;-77
2022/05/14 04:38:19;;;;;;;4.30;1.75;;;;;;;6.91;100.00;99469.97;5101591;28;20047;-77
2022/05/14 04:40:46;;;;;;;1.73;1.40;;;;;;;7.19;100.00;99501.50;5102304;28;20044;-77
2022/05/14 04:43:14;;;;;;;2.42;1.38;;;;;;;7.19;100.00;99490.69;5103118;28;20054;-80
2022/05/14 04:45:45;;;;;;;3.05;1.75;;;;;;;7.32;100.00;99504.66;5108714;28;20097;-78
2022/05/14 04:48:12;;;;;;;3.80;1.52;;;;;;;7.24;100.00;99488.34;5103907;28;20047;-78
2022/05/14 04:50:39;;;;;;;3.63;1.50;;;;;;;7.28;100.00;99499.72;5106879;28;20043;-78
2022/05/14 04:53:08;;;;;;;3.50;1.90;;;;;;;7.36;100.00;99503.34;5112218;28;20105;-78
2022/05/14 04:55:35;;;;;;;5.67;2.20;;;;;;;7.38;100.00;99485.09;5109640;28;20070;-78
2022/05/14 04:58:02;;;;;;;4.85;1.70;;;;;;;7.66;100.00;99527.41;5113231;28;20043;-78
2022/05/14 05:00:29;;;;;;;4.85;2.08;;;;;;;7.62;100.00;99510.66;5098331;28;20050;-78
2022/05/14 05:05:40;;;;;;;6.50;2.00;;;;;;;7.84;100.00;99511.97;5107893;28;20062;-78
2022/05/14 05:08:09;;;;;;;4.13;1.60;;;;;;;7.91;100.00;99502.22;5106674;28;20044;-78
2022/05/14 05:10:36;;;;;;;4.23;1.80;;;;;;;8.42;100.00;99521.28;5103481;28;20275;-78
2022/05/14 05:13:03;;;;;;;2.03;1.60;;;;;;;8.89;100.00;99484.72;5110804;28;20297;-77
2022/05/14 05:15:29;;;;;;;2.30;1.40;;;;;;;9.64;100.00;99478.31;5111513;28;20051;-79
2022/05/14 05:17:56;;;;;;;9.35;1.70;;;;;;;10.45;100.00;99510.94;5109566;28;20538;-79
2022/05/14 05:20:23;;;;;;;5.95;1.60;;;;;;;10.85;95.71;99489.16;5108539;28;20042;-79
2022/05/14 05:22:49;;;;;;;3.67;1.67;;;;;;;11.28;93.40;99511.34;5108635;28;20079;-79
2022/05/14 05:25:17;;;;;;;6.80;1.70;;;;;;;11.50;91.54;99480.53;5108986;28;20070;-79
2022/05/14 05:27:44;;;;;;;4.68;2.00;;;;;;;11.83;90.19;99487.53;5109445;28;20039;-79
2022/05/14 05:30:11;;;;;;;2.17;1.58;;;;;;;12.27;87.91;99505.88;5110074;28;20036;-79
2022/05/14 05:32:38;;;;;;;4.95;1.60;;;;;;;12.75;85.32;99519.06;5110421;28;20495;-79
2022/05/14 05:35:06;;;;;;;1.77;1.33;;;;;;;12.84;83.18;99476.16;5112144;28;20418;-79
2022/05/14 05:37:32;;;;;;;4.18;1.70;;;;;;;13.20;81.96;99505.34;5102385;28;20048;-78
2022/05/14 05:39:59;;;;;;;5.55;1.55;;;;;;;13.18;81.24;99485.59;5107524;28;20039;-77
2022/05/14 05:42:27;;;;;;;4.70;1.50;;;;;;;13.48;80.17;99477.28;5107988;28;20054;-77
2022/05/14 05:44:53;;;;;;;5.32;1.20;;;;;;;13.73;79.60;99503.16;5094824;28;20051;-77
2022/05/14 05:47:20;;;;;;;2.75;1.52;;;;;;;13.81;78.96;99488.50;5111660;28;20494;-78
2022/05/14 05:49:46;;;;;;;3.33;1.55;;;;;;;13.56;80.26;99490.81;5103670;28;20044;-77
2022/05/14 05:52:13;;;;;;;2.58;1.60;;;;;;;13.73;78.88;99516.81;5107463;28;20558;-79
2022/05/14 05:57:39;;;;;;;8.75;4.18;;;;;;;14.69;73.62;99490.75;5083162;28;20211;-77
2022/05/14 06:00:09;;;;;;;2.85;2.03;;;;;;;14.75;76.69;99478.13;5095766;28;20048;-77
2022/05/14 06:02:36;;;;;;;3.58;2.00;;;;;;;15.11;76.35;99505.22;5106106;28;20051;-77
2022/05/14 06:05:04;;;;;;;3.72;1.80;;;;;;;15.35;75.13;99476.41;5103252;27;20040;-77
2022/05/14 06:07:31;;;;;;;5.43;2.33;;;;;;;15.66;74.39;99487.84;5109754;28;20479;-76
2022/05/14 06:09:58;;;;;;;8.32;3.90;;;;;;;15.70;72.22;99494.56;5110750;28;20054;-77
2022/05/14 06:12:25;;;;;;;6.63;2.80;;;;;;;15.65;71.86;99480.66;5108680;28;20055;-77
2022/05/14 06:14:53;;;;;;;4.32;1.80;;;;;;;16.10;71.58;99511.03;5111455;28;20048;-77
2022/05/14 06:17:19;;;;;;;3.70;1.58;;;;;;;16.55;68.54;99508.41;5093970;28;20059;-76
2022/05/14 06:19:46;;;;;;;7.13;2.05;;;;;;;16.64;67.80;99509.84;5110442;28;20035;-77
2022/05/14 06:22:12;;;;;;;2.67;1.67;;;;;;;17.10;67.49;99513.53;5090468;28;20503;-77
2022/05/14 06:24:39;;;;;;;4.43;1.30;;;;;;;17.24;66.29;99494.22;5090731;28;20078;-77
2022/05/14 06:27:06;;;;;;;6.97;1.63;;;;;;;17.34;65.97;99505.53;5101939;28;20062;-77
2022/05/14 06:29:34;;;;;;;3.22;1.50;;;;;;;17.61;66.07;99488.88;5108374;28;20040;-77
2022/05/14 06:32:02;;;;;;;8.57;1.65;;;;;;;17.82;63.48;99515.16;5104838;28;20047;-77
2022/05/14 06:34:28;;;;;;;4.13;1.35;;;;;;;18.21;61.69;99516.72;5110781;28;20043;-77
2022/05/14 06:36:55;;;;;;;4.15;1.40;;;;;;;18.17;58.82;99499.00;5110918;28;20055;-77
2022/05/14 06:39:27;;;;;;;3.75;1.40;;;;;;;18.17;57.49;99482.50;5104213;28;20058;-77
2022/05/14 06:41:53;;;;;;;4.53;1.60;;;;;;;18.58;58.45;99510.44;5108995;28;20059;-77
2022/05/14 06:44:21;;;;;;;3.65;1.67;;;;;;;18.61;56.76;99503.63;5107083;28;20513;-78
2022/05/14 06:46:47;;;;;;;5.65;1.30;;;;;;;18.49;56.86;99481.53;5108967;28;20063;-77
2022/05/14 06:49:16;;;;;;;8.82;1.80;;;;;;;18.90;55.79;99493.78;5107014;28;20575;-77
2022/05/14 06:51:43;;;;;;;3.05;1.65;;;;;;;18.66;56.02;99499.13;5107064;28;20047;-78
2022/05/14 06:54:11;;;;;;;13.25;2.28;;;;;;;19.02;54.56;99518.66;5109352;28;20470;-77
2022/05/14 06:56:42;;;;;;;5.35;1.52;;;;;;;19.06;54.73;99493.16;5109704;28;20048;-77
2022/05/14 06:59:09;;;;;;;2.67;1.50;;;;;;;19.05;55.70;99510.75;5114969;28;20098;-77
2022/05/14 07:01:38;;;;;;;8.10;1.80;;;;;;;18.78;54.83;99504.69;5115056;28;20044;-77
2022/05/14 07:06:52;;;;;;;4.10;1.60;;;;;;;19.79;53.70;99510.53;5111201;28;20551;-77
2022/05/14 07:09:22;;;;;;;5.78;1.58;;;;;;;19.10;52.95;99510.91;5110895;28;20417;-77
2022/05/14 07:11:51;;;;;;;6.45;1.65;;;;;;;19.28;54.86;99506.41;5107773;28;20044;-77
2022/05/14 07:14:19;;;;;;;4.53;1.42;;;;;;;19.75;53.20;99506.56;5103589;28;20054;-77
2022/05/14 07:16:47;;;;;;;6.40;1.77;;;;;;;19.08;55.01;99513.03;5111089;28;20048;-77
2022/05/14 07:19:14;;;;;;;5.28;1.63;;;;;;;19.03;53.87;99501.88;5098257;28;20055;-77
2022/05/14 07:21:44;;;;;;;3.35;1.33;;;;;;;19.39;56.00;99491.84;5110274;28;20039;-77
2022/05/14 07:24:15;;;;;;;7.65;1.30;;;;;;;19.72;52.47;99500.66;5109539;28;20126;-77
2022/05/14 07:26:41;;;;;;;5.45;1.35;;;;;;;19.71;52.73;99505.34;5112996;28;20079;-77
2022/05/14 07:29:10;;;;;;;2.53;1.20;;;;;;;19.74;50.38;99499.34;5105963;28;20407;-77
2022/05/14 07:31:38;;;;;;;5.22;2.00;;;;;;;19.82;49.64;99505.66;5113560;28;20036;-77
2022/05/14 07:34:05;;;;;;;5.60;1.35;;;;;;;20.00;48.77;99522.09;5111315;28;20487;-77
2022/05/14 07:36:38;;;;;;;5.15;1.20;;;;;;;19.58;49.18;99505.56;5107692;28;20050;-77
2022/05/14 07:39:05;;;;;;;3.95;1.48;;;;;;;19.72;48.35;99514.44;5109288;28;20044;-77
2022/05/14 07:41:37;;;;;;;7.68;1.27;;;;;;;19.70;48.48;99513.88;5102502;28;20040;-75
2022/05/14 07:44:07;;;;;;;5.80;1.45;;;;;;;19.39;48.59;99494.59;5097711;28;20139;-75
2022/05/14 07:46:35;;;;;;;;;;;;;;;19.86;47.97;99521.47;5114764;28;20270;-75
2022/05/14 07:49:05;;;;;;;5.93;0.88;;;;;;;20.03;47.45;99516.09;5106256;28;19919;-75
2022/05/14 07:51:32;;;;;;;7.38;1.20;;;;;;;19.90;46.23;99519.06;5115441;28;20502;-78
2022/05/14 07:54:00;;;;;;;5.38;1.20;;;;;;;19.95;45.89;99499.91;5104987;28;20056;-77
2022/05/14 07:56:27;;;;;;;6.20;1.25;;;;;;;20.04;45.77;99506.75;5121976;27;20043;-78
2022/05/14 07:58:55;;;;;;;3.30;1.00;;;;;;;19.89;47.33;99528.44;5114199;28;20509;-78
2022/05/14 08:01:21;;;;;;;3.53;1.00;;;;;;;19.88;49.32;99504.69;5112969;28;20047;-78
2022/05/14 08:03:48;;;;;;;3.33;1.00;;;;;;;20.03;49.96;99523.53;5109643;28;20054;-77
2022/05/14 08:06:15;;;;;;;2.47;1.10;;;;;;;19.65;48.13;99503.53;5113883;28;20063;-78
2022/05/14 08:08:42;;;;;;;4.38;1.38;;;;;;;19.79;48.28;99506.94;5109658;28;20062;-77
2022/05/14 08:11:09;;;;;;;2.75;1.23;;;;;;;19.42;47.93;99504.28;5104158;28;20084;-77
2022/05/14 08:13:35;;;;;;;2.85;1.65;;;;;;;19.47;50.74;99504.44;5101532;27;20044;-77
2022/05/14 08:16:04;;;;;;;4.47;1.77;;;;;;;19.53;48.33;99508.19;5113840;28;20121;-77
2022/05/14 08:18:30;;;;;;;5.25;1.50;;;;;;;19.56;48.91;99507.72;5110269;28;20043;-78
2022/05/14 08:24:29;;;;;;;2.03;0.85;;;;;;;19.79;48.81;99523.50;5107589;28;20039;-77
2022/05/14 08:26:30;;;;;;;3.83;0.88;;;;;;;19.97;48.24;99506.00;5108057;28;20506;-77
2022/05/14 08:28:56;;;;;;;4.40;1.05;;;;;;;19.72;48.90;99501.53;5111131;28;20135;-77
2022/05/14 08:31:24;;;;;;;5.00;1.30;;;;;;;19.70;50.29;99495.38;5095906;28;20051;-78
2022/05/14 08:33:51;;;;;;;6.85;1.55;;;;;;;19.96;48.33;99505.19;5104637;27;20059;-79
2022/05/14 08:36:17;;;;;;;2.10;1.30;;;;;;;20.02;48.42;99503.38;5110182;28;20130;-78
2022/05/14 08:38:44;;;;;;;6.70;1.27;;;;;;;19.72;46.38;99497.91;5103739;28;20044;-78
2022/05/14 08:41:10;;;;;;;5.82;1.20;;;;;;;20.31;47.44;99504.34;5106612;28;20040;-79
2022/05/14 08:43:42;;;;;;;12.93;1.20;;;;;;;19.85;45.35;99485.84;5101149;28;20047;-78
2022/05/14 08:46:09;;;;;;;7.05;1.13;;;;;;;20.18;48.17;99487.19;5112968;28;20058;-78
2022/05/14 08:48:39;;;;;;;4.75;1.23;;;;;;;20.24;49.19;99506.38;5099510;28;20043;-78
2022/05/14 08:51:07;;;;;;;6.80;1.35;;;;;;;20.03;47.69;99480.22;5112198;28;20089;-79
2022/05/14 08:53:37;;;;;;;7.78;1.08;;;;;;;20.47;47.74;99500.03;5097308;28;20479;-77
2022/05/14 08:56:26;;;;;;;6.88;1.50;;;;;;;20.22;44.72;99482.84;5111984;28;20398;-82
2022/05/14 08:59:20;;;;;;;3.37;0.83;;;;;;;20.35;43.77;99466.03;5101554;28;20134;-79
2022/05/14 09:01:48;;;;;;;2.88;0.70;;;;;;;20.37;44.68;99472.19;5093686;28;20306;-76
2022/05/14 09:04:20;;;;;;;5.88;1.33;;;;;;;20.67;43.56;99496.91;5108224;28;20060;-77
2022/05/14 09:06:50;;;;;;;6.00;1.00;;;;;;;20.63;43.83;99492.91;5112764;28;20051;-78
2022/05/14 09:09:19;;;;;;;2.85;0.82;;;;;;;20.49;43.24;99492.34;5104760;28;20073;-78
2022/05/14 09:11:53;;;;;;;4.03;1.02;;;;;;;20.44;45.43;99475.63;5112383;28;20091;-78
2022/05/14 09:14:26;;;;;;;2.75;1.27;;;;;;;20.26;43.48;99479.38;5111261;27;20051;-78
2022/05/14 09:17:01;;;;;;;6.85;1.27;;;;;;;20.08;45.08;99491.41;5110613;28;20073;-78
2022/05/14 09:19:42;;;;;;;4.82;0.98;;;;;;;20.34;45.75;99467.16;5112292;28;20048;-77
2022/05/14 09:22:18;;;;;;;3.67;1.08;;;;;;;20.49;44.83;99477.69;5111531;28;20056;-77
2022/05/14 09:24:50;;;;;;;9.40;1.08;;;;;;;20.73;46.67;99480.41;5112208;28;20051;-78
2022/05/14 09:27:23;;;;;;;5.10;0.93;;;;;;;20.59;43.07;99460.50;5112327;28;20057;-77
2022/05/14 09:29:54;;;;;;;2.47;1.05;;;;;;;20.37;44.02;99482.38;5112519;28;20054;-78
2022/05/14 09:32:32;;;;;;;4.30;1.08;;;;;;;20.80;43.85;99487.47;5097484;28;20048;-78
2022/05/14 09:35:10;;;;;;;2.95;0.90;;;;;;;20.64;43.04;99477.16;5112059;28;20054;-79
2022/05/14 09:37:37;;;;;;;2.20;1.00;;;;;;;20.71;43.15;99474.31;5112105;28;20499;-78
2022/05/14 09:40:09;;;;;;;5.18;1.17;;;;;;;20.98;43.25;99463.53;5098368;28;20040;-78
2022/05/14 09:42:41;;;;;;;6.60;1.13;;;;;;;21.07;43.79;99464.00;5090996;28;20047;-78
2022/05/14 09:45:22;;;;;;;6.50;1.20;;;;;;;21.20;42.97;99475.56;5091379;28;20044;-78
2022/05/14 09:47:49;;;;;;;4.25;1.05;;;;;;;21.19;44.69;99473.88;5093408;28;20044;-78
2022/05/14 09:50:22;;;;;;;4.47;1.33;;;;;;;21.32;40.37;99483.00;5106713;27;20039;-78
2022/05/14 09:52:58;;;;;;;6.00;1.20;;;;;;;21.00;39.32;99456.69;5113740;27;20051;-78
2022/05/14 09:55:36;;;;;;;10.13;2.55;;;;;;;21.03;38.92;99453.44;5098663;28;20055;-78
2022/05/14 09:58:10;;;;;;;3.92;1.10;;;;;;;21.39;39.01;99467.06;5109927;28;20047;-78
2022/05/14 10:00:47;;;;;;;3.80;0.98;;;;;;;21.26;41.01;99453.53;5111935;28;20043;-79
2022/05/14 10:03:33;;;;;;;2.65;0.88;;;;;;;21.21;38.19;99465.34;5109606;28;20061;-78
2022/05/14 10:06:15;;;;;;;4.47;0.80;;;;;;;21.39;39.26;99456.84;5111505;28;20055;-78
2022/05/14 10:09:14;;;;;;;5.22;1.33;;;;;;;21.40;39.67;99465.97;5111060;28;20078;-78
2022/05/14 10:11:44;;;;;;;9.57;3.53;;;;;;;21.39;39.72;99484.50;5104606;28;20399;-78
2022/05/14 10:14:15;;;;;;;;;;;;;;;21.76;38.82;99461.09;5104170;28;20047;-78
2022/05/14 10:16:58;;;;;;;1.17;1.05;;;;;;;21.78;37.98;99464.44;5111126;28;19926;-78
2022/05/14 10:19:49;;;;;;;4.22;0.98;;;;;;;21.53;36.89;99437.22;5111041;28;20043;-77
2022/05/14 10:22:24;;;;;;;4.13;0.55;;;;;;;21.51;37.57;99448.53;5110343;28;20476;-78
2022/05/14 10:27:53;;;;;;;2.22;0.88;;;;;;;21.80;37.34;99450.34;5111526;28;20414;-78
2022/05/14 10:30:25;;;;;;;3.20;0.80;;;;;;;22.11;37.13;99457.22;5106593;28;20051;-78
2022/05/14 10:32:55;;;;;;;4.45;1.10;;;;;;;22.30;36.16;99446.69;5106590;28;20052;-78
2022/05/14 10:35:25;;;;;;;3.60;0.50;;;;;;;22.40;35.15;99430.25;5111258;28;20043;-78
2022/05/14 10:37:57;;;;;;;3.90;0.90;;;;;;;22.66;36.06;99452.75;5111170;28;20573;-78
2022/05/14 10:40:30;;;;;;;5.55;1.55;;;;;;;22.83;36.49;99441.59;5111350;28;20051;-78
2022/05/14 10:43:31;;;;;;;3.47;0.77;;;;;;;22.42;33.59;99427.25;5101953;28;20528;-78
2022/05/14 10:45:59;;;;;;;3.53;0.93;;;;;;;22.67;34.07;99423.09;5110794;28;20055;-78
2022/05/14 10:48:37;;;;;;;5.43;0.82;;;;;;;22.65;34.15;99411.47;5110112;28;20066;-79
2022/05/14 10:51:07;;;;;;;2.85;0.68;;;;;;;22.73;32.46;99416.53;5110939;28;20044;-78
2022/05/14 10:53:39;;;;;;;4.47;0.95;;;;;;;22.67;34.97;99434.19;5110100;28;20055;-78
2022/05/14 10:56:09;;;;;;;1.75;0.95;;;;;;;23.11;34.14;99432.25;5111087;28;20498;-78
2022/05/14 10:58:43;;;;;;;3.05;0.68;;;;;;;22.56;34.74;99411.88;5109915;28;20051;-78
2022/05/14 11:01:11;;;;;;;3.42;0.70;;;;;;;22.56;35.98;99422.97;5110086;28;20051;-78
2022/05/14 11:03:40;;;;;;;2.28;0.70;;;;;;;22.39;35.10;99403.66;5107741;28;20399;-79
2022/05/14 11:06:10;;;;;;;7.63;0.98;;;;;;;22.90;36.72;99419.19;5111026;28;20047;-78
2022/05/14 11:08:42;;;;;;;3.13;1.05;;;;;;;22.82;35.43;99395.56;5111058;28;20055;-78
2022/05/14 11:11:15;;;;;;;2.40;1.35;;;;;;;23.33;35.20;99409.16;5110843;28;20055;-78
2022/05/14 11:13:42;;;;;;;9.73;0.98;;;;;;;23.38;32.66;99408.34;5110649;28;20538;-78
2022/05/14 11:16:12;;;;;;;3.13;0.70;;;;;;;23.31;33.15;99425.22;5110903;28;20056;-79
2022/05/14 11:18:47;;;;;;;7.15;1.23;;;;;;;23.35;32.96;99429.16;5105808;28;20048;-78
2022/05/14 11:21:14;;;;;;;5.15;0.88;;;;;;;23.43;31.79;99405.66;5110807;28;20047;-78
2022/05/14 11:23:54;;;;;;;2.95;0.70;;;;;;;23.77;32.77;99422.00;5109870;28;20505;-78
2022/05/14 11:26:22;;;;;;;3.90;0.85;;;;;;;23.86;34.85;99398.22;5110879;28;20048;-78
2022/05/14 11:28:58;;;;;;;3.22;0.70;;;;;;;24.13;30.86;99430.63;5110840;28;20051;-78
2022/05/14 11:31:27;;;;;;;1.63;0.73;;;;;;;23.84;31.55;99415.13;5101459;28;20071;-78
2022/05/14 11:33:56;;;;;;;1.40;0.85;;;;;;;24.20;32.32;99404.28;5097926;28;20062;-79
2022/05/14 11:36:26;;;;;;;3.03;0.82;;;;;;;24.09;32.34;99410.88;5110382;28;20048;-79
2022/05/14 11:39:08;;;;;;;3.33;1.08;;;;;;;24.11;29.20;99403.13;5112919;28;20590;-78
2022/05/14 11:41:37;;;;;;;1.70;0.70;;;;;;;24.11;29.55;99407.84;5114397;28;20040;-79
2022/05/14 11:44:06;;;;;;;3.90;0.68;;;;;;;24.20;29.80;99406.22;5113945;28;20055;-78
2022/05/14 11:46:40;;;;;;;2.30;0.70;;;;;;;24.10;27.43;99414.50;5113453;28;20495;-79
2022/05/14 11:49:20;;;;;;;2.00;0.50;;;;;;;24.17;28.25;99418.69;5114225;28;20054;-78
2022/05/14 11:52:02;;;;;;;1.92;0.60;;;;;;;24.30;28.71;99414.63;5106889;28;20044;-78
2022/05/14 11:54:33;;;;;;;1.05;0.55;;;;;;;24.30;28.75;99386.84;5107830;28;20058;-78
2022/05/14 11:57:07;;;;;;;1.73;0.55;;;;;;;24.63;28.70;99412.59;5114313;28;20081;-78
2022/05/14 11:59:40;;;;;;;0.93;0.50;;;;;;;24.44;28.29;99386.34;5113435;28;20055;-78
2022/05/14 12:02:14;;;;;;;3.40;0.55;;;;;;;24.59;27.89;99413.41;5113348;28;20044;-78
2022/05/14 12:04:45;;;;;;;2.55;0.80;;;;;;;24.00;28.43;99391.13;5113895;28;20062;-79